X  Chiuso Dati meteorologici dell'aviazione (METAR)     LIRA Ciampino–G. B. Pastine International Airport
Temperatura
10°C Temperatura
8°C Punto di rugiada
88% Umidità



Vento
5 KM/H
3 MPH
1 M/S
3 KTS



30°
NNE
Condizioni attuali

Prevalentemente nuvoloso Prevalentemente nuvoloso
Pressione 1007.92 (hPa) - 29.76 (inHg)
Visibilità 6.2 (miglio) - 10 (km)
Aeroporto
Codice-Aeroporto LIRA

Posizione: Ciampino–G. B. Pastine International Airport
Distanza: 48 (km)

Metar:
LIRA 290420Z 03003KT 360V060 9999 BKN050 10/08 Q1008

Ore: 29-11-2020 05:20 CET